Time,TemperatureF,DewpointF,PressureIn,WindDirection,WindDirectionDegrees,WindSpeedMPH,WindSpeedGustMPH,Humidity,HourlyPrecipIn,Conditions,Clouds,dailyrainin,SoftwareType,DateUTC
2013-02-24 00:01:00,24.0,24.0,-100.00,South,170,0.0,0.0,98,0.00,,,-99.99,,2013-02-24 06:01:00,
2013-02-24 00:10:00,24.0,23.0,-100.00,South,175,0.0,0.0,98,0.00,,,-99.99,,2013-02-24 06:10:00,
2013-02-24 00:32:00,24.0,23.0,-100.00,South,175,0.0,0.0,98,0.00,,,-99.99,,2013-02-24 06:32:00,
2013-02-24 00:42:00,24.0,23.0,-100.00,South,175,0.0,0.0,98,0.00,,,-99.99,,2013-02-24 06:42:00,
2013-02-24 00:52:00,24.0,23.0,-100.00,South,175,0.0,0.0,98,0.00,,,-99.99,,2013-02-24 06:52:00,
2013-02-24 01:01:00,24.0,23.0,-100.00,South,175,0.0,0.0,98,0.00,,,-99.99,,2013-02-24 07:01:00,
2013-02-24 01:32:00,22.0,22.0,-100.00,South,175,0.0,0.0,98,0.00,,,-99.99,,2013-02-24 07:32:00,
2013-02-24 01:42:00,22.0,22.0,-100.00,South,175,0.0,0.0,98,0.00,,,-99.99,,2013-02-24 07:42:00,
2013-02-24 01:52:00,22.0,22.0,-100.00,South,175,0.0,0.0,98,0.00,,,-99.99,,2013-02-24 07:52:00,
2013-02-24 02:01:00,22.0,22.0,-100.00,South,175,0.0,0.0,98,0.00,,,-99.99,,2013-02-24 08:01:00,
2013-02-24 02:32:00,20.0,20.0,-100.00,SSE,160,0.0,1.0,98,0.00,,,-99.99,,2013-02-24 08:32:00,
2013-02-24 02:42:00,20.0,20.0,-100.00,SSE,160,0.0,1.0,98,0.00,,,-99.99,,2013-02-24 08:42:00,
2013-02-24 02:54:00,20.0,20.0,-100.00,SSE,160,0.0,1.0,98,0.00,,,-99.99,,2013-02-24 08:54:00,
2013-02-24 03:01:00,20.0,20.0,-100.00,SSE,160,0.0,1.0,98,0.00,,,-99.99,,2013-02-24 09:01:00,
2013-02-24 03:32:00,16.0,16.0,-100.00,SE,125,1.0,1.0,98,0.00,,,-99.99,,2013-02-24 09:32:00,
2013-02-24 03:42:00,16.0,16.0,-100.00,SE,125,1.0,1.0,98,0.00,,,-99.99,,2013-02-24 09:42:00,
2013-02-24 03:52:00,16.0,16.0,-100.00,SE,125,1.0,1.0,98,0.00,,,-99.99,,2013-02-24 09:52:00,
2013-02-24 04:01:00,16.0,16.0,-100.00,SE,125,1.0,1.0,98,0.00,,,-99.99,,2013-02-24 10:01:00,
2013-02-24 04:32:00,17.0,17.0,-100.00,SE,125,1.0,1.0,98,0.00,,,-99.99,,2013-02-24 10:32:00,
2013-02-24 04:42:00,17.0,17.0,-100.00,SE,125,1.0,1.0,98,0.00,,,-99.99,,2013-02-24 10:42:00,
2013-02-24 04:52:00,17.0,17.0,-100.00,SE,125,1.0,1.0,98,0.00,,,-99.99,,2013-02-24 10:52:00,
2013-02-24 05:01:00,17.0,17.0,-100.00,SE,125,1.0,1.0,98,0.00,,,-99.99,,2013-02-24 11:01:00,
2013-02-24 05:32:00,19.0,18.0,-100.00,SW,235,0.0,0.0,98,0.00,,,-99.99,,2013-02-24 11:32:00,
2013-02-24 05:42:00,19.0,18.0,-100.00,SW,235,0.0,0.0,98,0.00,,,-99.99,,2013-02-24 11:42:00,
2013-02-24 05:53:00,19.0,18.0,-100.00,SW,235,0.0,0.0,98,0.00,,,-99.99,,2013-02-24 11:53:00,
2013-02-24 06:01:00,19.0,18.0,-100.00,SW,235,0.0,0.0,98,0.00,,,-99.99,,2013-02-24 12:01:00,
2013-02-24 06:10:00,20.0,19.0,-100.00,North,-999,-999.0,-999.0,98,0.00,,,-99.99,,2013-02-24 12:10:00,
2013-02-24 06:33:00,20.0,19.0,-100.00,North,-999,-999.0,-999.0,98,0.00,,,-99.99,,2013-02-24 12:33:00,
2013-02-24 06:46:00,20.0,19.0,-100.00,North,-999,-999.0,-999.0,98,0.00,,,-99.99,,2013-02-24 12:46:00,
2013-02-24 07:10:00,20.0,20.0,-100.00,East,100,1.0,2.0,98,0.00,,,-99.99,,2013-02-24 13:10:00,
2013-02-24 07:35:00,20.0,20.0,-100.00,East,100,1.0,2.0,98,0.00,,,-99.99,,2013-02-24 13:35:00,
2013-02-24 07:45:00,20.0,20.0,-100.00,East,100,1.0,2.0,98,0.00,,,-99.99,,2013-02-24 13:45:00,
2013-02-24 07:55:00,20.0,20.0,-100.00,East,100,1.0,2.0,98,0.00,,,-99.99,,2013-02-24 13:55:00,
2013-02-24 08:04:00,20.0,20.0,-100.00,East,100,1.0,2.0,98,0.00,,,-99.99,,2013-02-24 14:04:00,
2013-02-24 08:34:00,24.0,23.0,-100.00,SE,140,0.0,1.0,98,0.00,,,-99.99,,2013-02-24 14:34:00,
2013-02-24 08:45:00,24.0,23.0,-100.00,SE,140,0.0,1.0,98,0.00,,,-99.99,,2013-02-24 14:45:00,
2013-02-24 08:54:00,24.0,23.0,-100.00,SE,140,0.0,1.0,98,0.00,,,-99.99,,2013-02-24 14:54:00,
2013-02-24 09:02:00,24.0,23.0,-100.00,SE,140,0.0,1.0,98,0.00,,,-99.99,,2013-02-24 15:02:00,
2013-02-24 09:10:00,27.0,26.0,-100.00,East,100,1.0,1.0,98,0.00,,,-99.99,,2013-02-24 15:10:00,
2013-02-24 09:32:00,27.0,26.0,-100.00,East,100,1.0,1.0,98,0.00,,,-99.99,,2013-02-24 15:32:00,
2013-02-24 09:42:00,27.0,26.0,-100.00,East,100,1.0,1.0,98,0.00,,,-99.99,,2013-02-24 15:42:00,
2013-02-24 09:53:00,27.0,26.0,-100.00,East,100,1.0,1.0,98,0.00,,,-99.99,,2013-02-24 15:53:00,
2013-02-24 10:01:00,27.0,26.0,-100.00,East,100,1.0,1.0,98,0.00,,,-99.99,,2013-02-24 16:01:00,
2013-02-24 10:32:00,29.0,26.0,-100.00,SE,130,4.0,6.0,91,0.00,,,-99.99,,2013-02-24 16:32:00,
2013-02-24 10:42:00,29.0,26.0,-100.00,SE,130,4.0,6.0,91,0.00,,,-99.99,,2013-02-24 16:42:00,
2013-02-24 10:52:00,29.0,26.0,-100.00,SE,130,4.0,6.0,91,0.00,,,-99.99,,2013-02-24 16:52:00,
2013-02-24 11:01:00,29.0,26.0,-100.00,SE,130,4.0,6.0,91,0.00,,,-99.99,,2013-02-24 17:01:00,
2013-02-24 11:32:00,31.0,24.0,-100.00,SE,135,1.0,4.0,74,0.00,,,-99.99,,2013-02-24 17:32:00,
2013-02-24 11:42:00,31.0,24.0,-100.00,SE,135,1.0,4.0,74,0.00,,,-99.99,,2013-02-24 17:42:00,
2013-02-24 11:53:00,31.0,24.0,-100.00,SE,135,1.0,4.0,74,0.00,,,-99.99,,2013-02-24 17:53:00,
2013-02-24 12:01:00,31.0,24.0,-100.00,SE,135,1.0,4.0,74,0.00,,,-99.99,,2013-02-24 18:01:00,
2013-02-24 12:10:00,33.0,22.0,-100.00,West,260,0.0,3.0,64,0.00,,,-99.99,,2013-02-24 18:10:00,
2013-02-24 12:32:00,33.0,22.0,-100.00,West,260,0.0,3.0,64,0.00,,,-99.99,,2013-02-24 18:32:00,
2013-02-24 12:42:00,33.0,22.0,-100.00,West,260,0.0,3.0,64,0.00,,,-99.99,,2013-02-24 18:42:00,
2013-02-24 12:52:00,33.0,22.0,-100.00,West,260,0.0,3.0,64,0.00,,,-99.99,,2013-02-24 18:52:00,
2013-02-24 13:01:00,33.0,22.0,-100.00,West,260,0.0,3.0,64,0.00,,,-99.99,,2013-02-24 19:01:00,
2013-02-24 13:32:00,33.0,22.0,-100.00,NW,310,1.0,4.0,64,0.00,,,-99.99,,2013-02-24 19:32:00,
2013-02-24 13:42:00,33.0,22.0,-100.00,NW,310,1.0,4.0,64,0.00,,,-99.99,,2013-02-24 19:42:00,
2013-02-24 13:52:00,33.0,22.0,-100.00,NW,310,1.0,4.0,64,0.00,,,-99.99,,2013-02-24 19:52:00,
2013-02-24 14:02:00,33.0,22.0,-100.00,NW,310,1.0,4.0,64,0.00,,,-99.99,,2013-02-24 20:02:00,
2013-02-24 14:10:00,32.0,23.0,-100.00,WSW,255,1.0,7.0,71,0.00,,,-99.99,,2013-02-24 20:10:00,
2013-02-24 14:32:00,32.0,23.0,-100.00,WSW,255,1.0,7.0,71,0.00,,,-99.99,,2013-02-24 20:32:00,
2013-02-24 14:42:00,32.0,23.0,-100.00,WSW,255,1.0,7.0,71,0.00,,,-99.99,,2013-02-24 20:42:00,
2013-02-24 14:52:00,32.0,23.0,-100.00,WSW,255,1.0,7.0,71,0.00,,,-99.99,,2013-02-24 20:52:00,
2013-02-24 15:01:00,32.0,23.0,-100.00,WSW,255,1.0,7.0,71,0.00,,,-99.99,,2013-02-24 21:01:00,
2013-02-24 15:10:00,32.0,23.0,-100.00,SE,140,1.0,4.0,69,0.00,,,-99.99,,2013-02-24 21:10:00,
2013-02-24 15:32:00,32.0,23.0,-100.00,SE,140,1.0,4.0,69,0.00,,,-99.99,,2013-02-24 21:32:00,
2013-02-24 15:42:00,32.0,23.0,-100.00,SE,140,1.0,4.0,69,0.00,,,-99.99,,2013-02-24 21:42:00,
2013-02-24 15:52:00,32.0,23.0,-100.00,SE,140,1.0,4.0,69,0.00,,,-99.99,,2013-02-24 21:52:00,
2013-02-24 16:01:00,32.0,23.0,-100.00,SE,140,1.0,4.0,69,0.00,,,-99.99,,2013-02-24 22:01:00,
2013-02-24 16:32:00,32.0,24.0,-100.00,West,260,1.0,2.0,71,0.00,,,-99.99,,2013-02-24 22:32:00,
2013-02-24 16:42:00,32.0,24.0,-100.00,West,260,1.0,2.0,71,0.00,,,-99.99,,2013-02-24 22:42:00,
2013-02-24 16:52:00,32.0,24.0,-100.00,West,260,1.0,2.0,71,0.00,,,-99.99,,2013-02-24 22:52:00,
2013-02-24 17:02:00,32.0,24.0,-100.00,West,260,1.0,2.0,71,0.00,,,-99.99,,2013-02-24 23:02:00,
2013-02-24 17:32:00,31.0,24.0,-100.00,SW,230,0.0,1.0,75,0.00,,,-99.99,,2013-02-24 23:32:00,
2013-02-24 17:42:00,31.0,24.0,-100.00,SW,230,0.0,1.0,75,0.00,,,-99.99,,2013-02-24 23:42:00,
2013-02-24 17:52:00,31.0,24.0,-100.00,SW,230,0.0,1.0,75,0.00,,,-99.99,,2013-02-24 23:52:00,
2013-02-24 18:01:00,31.0,24.0,-100.00,SW,230,0.0,1.0,75,0.00,,,-99.99,,2013-02-25 00:01:00,
2013-02-24 18:32:00,30.0,25.0,-100.00,SE,125,0.0,2.0,80,0.00,,,-99.99,,2013-02-25 00:32:00,
2013-02-24 18:42:00,30.0,25.0,-100.00,SE,125,0.0,2.0,80,0.00,,,-99.99,,2013-02-25 00:42:00,
2013-02-24 18:52:00,30.0,25.0,-100.00,SE,125,0.0,2.0,80,0.00,,,-99.99,,2013-02-25 00:52:00,
2013-02-24 19:01:00,30.0,25.0,-100.00,SE,125,0.0,2.0,80,0.00,,,-99.99,,2013-02-25 01:01:00,
2013-02-24 19:32:00,27.0,24.0,-100.00,SE,130,2.0,3.0,90,0.00,,,-99.99,,2013-02-25 01:32:00,
2013-02-24 19:42:00,27.0,24.0,-100.00,SE,130,2.0,3.0,90,0.00,,,-99.99,,2013-02-25 01:42:00,
2013-02-24 19:52:00,27.0,24.0,-100.00,SE,130,2.0,3.0,90,0.00,,,-99.99,,2013-02-25 01:52:00,
2013-02-24 20:01:00,27.0,24.0,-100.00,SE,130,2.0,3.0,90,0.00,,,-99.99,,2013-02-25 02:01:00,
2013-02-24 20:10:00,25.0,24.0,-100.00,SE,125,2.0,4.0,95,0.00,,,-99.99,,2013-02-25 02:10:00,
2013-02-24 20:32:00,25.0,24.0,-100.00,SE,125,2.0,4.0,95,0.00,,,-99.99,,2013-02-25 02:32:00,
2013-02-24 20:42:00,25.0,24.0,-100.00,SE,125,2.0,4.0,95,0.00,,,-99.99,,2013-02-25 02:42:00,
2013-02-24 20:52:00,25.0,24.0,-100.00,SE,125,2.0,4.0,95,0.00,,,-99.99,,2013-02-25 02:52:00,
2013-02-24 21:01:00,25.0,24.0,-100.00,SE,125,2.0,4.0,95,0.00,,,-99.99,,2013-02-25 03:01:00,
2013-02-24 21:32:00,24.0,24.0,-100.00,SE,125,3.0,5.0,98,0.00,,,-99.99,,2013-02-25 03:32:00,
2013-02-24 21:42:00,24.0,24.0,-100.00,SE,125,3.0,5.0,98,0.00,,,-99.99,,2013-02-25 03:42:00,
2013-02-24 21:52:00,24.0,24.0,-100.00,SE,125,3.0,5.0,98,0.00,,,-99.99,,2013-02-25 03:52:00,
2013-02-24 22:01:00,24.0,24.0,-100.00,SE,125,3.0,5.0,98,0.00,,,-99.99,,2013-02-25 04:01:00,
2013-02-24 22:32:00,26.0,24.0,-100.00,SSE,150,2.0,6.0,96,0.00,,,-99.99,,2013-02-25 04:32:00,
2013-02-24 22:42:00,26.0,24.0,-100.00,SSE,150,2.0,6.0,96,0.00,,,-99.99,,2013-02-25 04:42:00,
2013-02-24 22:52:00,26.0,24.0,-100.00,SSE,150,2.0,6.0,96,0.00,,,-99.99,,2013-02-25 04:52:00,
2013-02-24 23:01:00,26.0,24.0,-100.00,SSE,150,2.0,6.0,96,0.00,,,-99.99,,2013-02-25 05:01:00,
2013-02-24 23:32:00,20.0,19.0,-100.00,SE,125,0.0,1.0,96,0.00,,,-99.99,,2013-02-25 05:32:00,
2013-02-24 23:42:00,20.0,19.0,-100.00,SE,125,0.0,1.0,96,0.00,,,-99.99,,2013-02-25 05:42:00,
2013-02-24 23:52:00,20.0,19.0,-100.00,SE,125,0.0,1.0,96,0.00,,,-99.99,,2013-02-25 05:52:00,